Time;durP1;ratioP1;P1;durP2;ratioP2;P2;SDS_P1;SDS_P2;PMS_P1;PMS_P2;Temp;Humidity;BMP_temperature;BMP_pressure;BME280_temperature;BME280_humidity;BME280_pressure;Samples;Min_cycle;Max_cycle;Signal;HPM_P1;HPM_P2
2022/10/19 00:00:47;;;;;;;3.57;0.93;;;;;;;15.02;60.35;102551.63;4904003;28;96966;-50
2022/10/19 00:03:12;;;;;;;1.53;0.90;;;;;;;14.98;60.24;102529.63;4903484;28;97080;-46
2022/10/19 00:05:37;;;;;;;3.90;0.70;;;;;;;14.94;60.30;102539.38;4904377;28;96809;-44
2022/10/19 00:08:03;;;;;;;4.60;0.90;;;;;;;14.91;60.23;102538.34;4905720;28;98727;-46
2022/10/19 00:10:28;;;;;;;2.40;0.80;;;;;;;14.87;60.22;102542.53;4904476;28;97249;-49
2022/10/19 00:12:54;;;;;;;0.73;0.40;;;;;;;14.82;60.34;102543.97;4907996;28;97310;-45
2022/10/19 00:15:19;;;;;;;4.40;0.90;;;;;;;14.78;60.27;102540.63;4906535;28;97578;-47
2022/10/19 00:17:44;;;;;;;1.33;0.53;;;;;;;14.73;60.34;102543.28;4905396;28;97520;-45
2022/10/19 00:20:11;;;;;;;1.27;0.63;;;;;;;14.69;60.24;102539.94;4905417;28;105340;-45
2022/10/19 00:22:36;;;;;;;1.57;0.60;;;;;;;14.63;60.29;102545.38;4906320;28;97839;-47
2022/10/19 00:25:01;;;;;;;2.33;0.73;;;;;;;14.58;60.19;102546.03;4906455;28;97272;-48
2022/10/19 00:27:27;;;;;;;1.43;0.70;;;;;;;14.53;60.34;102546.66;4905879;28;96976;-46
2022/10/19 00:29:52;;;;;;;1.63;1.20;;;;;;;14.48;60.45;102539.00;4906536;28;97045;-46
2022/10/19 00:32:17;;;;;;;1.43;0.50;;;;;;;14.42;60.27;102543.69;4903128;28;97251;-47
2022/10/19 00:34:43;;;;;;;1.00;0.70;;;;;;;14.42;60.27;102553.97;4905323;28;97209;-46
2022/10/19 00:37:08;;;;;;;3.10;0.90;;;;;;;14.38;60.40;102553.41;4905429;28;111724;-50
2022/10/19 00:39:33;;;;;;;6.00;0.80;;;;;;;14.36;60.54;102547.56;4904373;28;111176;-46
2022/10/19 00:41:59;;;;;;;7.30;0.70;;;;;;;14.34;60.30;102559.13;4907399;28;97120;-44
2022/10/19 00:44:47;;;;;;;5.07;0.73;;;;;;;14.33;60.60;102554.81;4905355;28;97092;-45
2022/10/19 00:47:13;;;;;;;2.93;0.60;;;;;;;14.34;60.52;102552.81;4898044;28;100544;-44
2022/10/19 00:49:43;;;;;;;7.77;0.80;;;;;;;14.36;60.44;102551.13;4904792;28;97018;-45
2022/10/19 00:52:13;;;;;;;2.40;0.70;;;;;;;14.36;60.63;102544.81;4907969;28;96694;-44
2022/10/19 00:54:41;;;;;;;6.40;0.67;;;;;;;14.36;60.63;102553.88;4903739;28;97235;-44
2022/10/19 00:57:06;;;;;;;5.23;0.70;;;;;;;14.35;60.47;102541.25;4904629;28;97486;-46
2022/10/19 00:59:33;;;;;;;4.53;0.90;;;;;;;14.37;60.52;102549.88;4903322;28;98632;-45
2022/10/19 01:02:01;;;;;;;7.00;0.90;;;;;;;14.38;60.65;102550.63;4902087;28;97179;-45
2022/10/19 01:04:27;;;;;;;9.07;0.90;;;;;;;14.36;60.60;102551.13;4905980;28;97003;-46
2022/10/19 01:06:53;;;;;;;4.47;0.97;;;;;;;14.37;60.57;102554.66;4904527;28;97123;-45
2022/10/19 01:09:19;;;;;;;2.40;0.53;;;;;;;14.37;60.74;102547.13;4905333;28;97102;-45
2022/10/19 01:12:10;;;;;;;3.97;0.70;;;;;;;14.38;60.74;102547.88;4905233;28;96784;-45
2022/10/19 01:14:38;;;;;;;5.67;0.90;;;;;;;14.38;60.66;102545.09;4906196;28;97589;-46
2022/10/19 01:17:28;;;;;;;1.10;0.67;;;;;;;14.41;61.10;102549.69;4905161;28;97186;-45
2022/10/19 01:20:15;;;;;;;3.13;0.73;;;;;;;14.42;60.68;102549.22;4903996;28;102668;-45
2022/10/19 01:23:05;;;;;;;2.70;1.00;;;;;;;14.37;60.97;102549.88;4905809;28;97222;-46
2022/10/19 01:25:52;;;;;;;3.50;0.60;;;;;;;14.35;60.89;102541.25;4903196;28;97368;-45
2022/10/19 01:28:52;;;;;;;6.30;1.17;;;;;;;14.34;60.89;102545.28;4903444;28;100499;-46
2022/10/19 01:31:24;;;;;;;1.63;0.60;;;;;;;14.30;60.69;102546.69;4905261;28;100775;-46
2022/10/19 01:33:58;;;;;;;3.00;0.70;;;;;;;14.31;60.85;102560.06;4908877;28;97295;-50
2022/10/19 01:36:38;;;;;;;0.90;0.73;;;;;;;14.33;61.13;102549.28;4903606;28;96949;-46
2022/10/19 01:39:14;;;;;;;2.50;0.60;;;;;;;14.39;61.08;102549.41;4904076;28;97410;-45
2022/10/19 01:42:14;;;;;;;1.70;0.60;;;;;;;14.43;61.15;102550.00;4902813;28;97264;-46
2022/10/19 01:44:54;;;;;;;1.63;0.70;;;;;;;14.45;60.98;102550.28;4907355;28;96980;-45
2022/10/19 01:47:47;;;;;;;3.90;0.73;;;;;;;14.49;60.97;102550.84;4907035;28;96838;-46
2022/10/19 01:51:05;;;;;;;5.13;1.07;;;;;;;14.51;61.12;102551.94;4899733;28;101305;-46
2022/10/19 01:53:38;;;;;;;3.33;0.70;;;;;;;14.56;60.93;102548.50;4881699;28;102790;-45
2022/10/19 01:56:05;;;;;;;14.13;0.80;;;;;;;14.58;60.96;102551.56;4904899;28;97548;-45
2022/10/19 01:58:34;;;;;;;2.87;0.80;;;;;;;14.60;60.86;102546.31;4906442;28;97150;-45
2022/10/19 02:01:03;;;;;;;4.60;0.73;;;;;;;14.63;60.96;102545.38;4904859;28;97193;-45
2022/10/19 02:03:30;;;;;;;5.50;0.77;;;;;;;14.64;60.90;102535.81;4907526;28;97251;-46
2022/10/19 02:05:57;;;;;;;2.40;0.77;;;;;;;14.66;60.84;102538.88;4908490;28;97312;-46
2022/10/19 02:08:35;;;;;;;5.03;1.47;;;;;;;14.67;60.71;102540.41;4903734;28;99448;-45
2022/10/19 02:11:02;;;;;;;3.73;0.70;;;;;;;14.66;60.81;102536.09;4906813;28;98118;-46
2022/10/19 02:13:29;;;;;;;2.97;0.97;;;;;;;14.69;60.78;102529.63;4907439;28;96858;-47
2022/10/19 02:15:58;;;;;;;2.80;0.73;;;;;;;14.71;60.87;102537.44;4906197;28;97103;-46
2022/10/19 02:18:29;;;;;;;2.73;0.53;;;;;;;14.73;60.77;102532.97;4907998;28;96948;-47
2022/10/19 02:20:55;;;;;;;5.43;0.80;;;;;;;14.73;60.83;102540.50;4906164;28;101632;-47
2022/10/19 02:23:24;;;;;;;1.87;0.50;;;;;;;14.73;60.88;102540.50;4908597;28;97074;-47
2022/10/19 02:25:49;;;;;;;7.30;0.93;;;;;;;14.72;60.67;102545.28;4907011;28;97412;-46
2022/10/19 02:28:15;;;;;;;1.60;0.60;;;;;;;14.74;60.84;102548.34;4908148;28;97182;-46
2022/10/19 02:30:41;;;;;;;4.40;1.10;;;;;;;14.73;60.85;102546.81;4907592;28;97401;-45
2022/10/19 02:33:07;;;;;;;11.30;1.13;;;;;;;14.74;60.92;102540.03;4914254;28;97335;-47
2022/10/19 02:35:32;;;;;;;2.73;0.60;;;;;;;14.73;60.79;102541.28;4907906;28;97241;-46
2022/10/19 02:38:01;;;;;;;2.00;0.67;;;;;;;14.73;60.70;102549.59;4903857;28;97082;-46
2022/10/19 02:40:28;;;;;;;1.63;0.70;;;;;;;14.75;60.98;102551.88;4902104;28;98567;-46
2022/10/19 02:43:00;;;;;;;3.43;0.87;;;;;;;14.74;60.87;102550.38;4907169;28;96865;-47
2022/10/19 02:45:34;;;;;;;3.43;0.70;;;;;;;14.73;60.98;102546.81;4909967;28;96906;-46
2022/10/19 02:48:07;;;;;;;1.33;0.60;;;;;;;14.73;61.22;102548.81;4905070;28;97108;-48
2022/10/19 02:50:33;;;;;;;0.60;0.40;;;;;;;14.69;60.94;102546.25;4908286;28;98934;-47
2022/10/19 02:52:59;;;;;;;1.03;0.67;;;;;;;14.69;61.00;102546.25;4907947;28;97016;-49
2022/10/19 02:55:25;;;;;;;2.87;1.07;;;;;;;14.71;60.96;102549.31;4908761;28;96902;-47
2022/10/19 02:57:50;;;;;;;1.70;0.70;;;;;;;14.73;60.72;102546.03;4908518;28;96969;-45
2022/10/19 03:00:16;;;;;;;1.17;0.70;;;;;;;14.73;60.97;102549.59;4908826;28;96954;-45
2022/10/19 03:02:41;;;;;;;2.60;1.00;;;;;;;14.75;60.87;102552.66;4906006;28;96964;-47
2022/10/19 03:05:07;;;;;;;3.13;0.93;;;;;;;14.72;60.98;102548.03;4897541;28;104021;-46
2022/10/19 03:07:33;;;;;;;1.53;0.70;;;;;;;14.74;61.10;102553.13;4905227;28;97001;-46
2022/10/19 03:09:58;;;;;;;1.53;0.63;;;;;;;14.73;61.05;102551.59;4907822;28;97355;-46
2022/10/19 03:12:23;;;;;;;0.80;0.73;;;;;;;14.71;60.98;102548.53;4906508;28;116421;-46
2022/10/19 03:14:49;;;;;;;2.83;0.60;;;;;;;14.68;61.06;102543.94;4906273;28;97470;-45
2022/10/19 03:17:14;;;;;;;3.43;0.53;;;;;;;14.67;61.17;102551.50;4907165;28;98529;-46
2022/10/19 03:19:39;;;;;;;6.10;0.90;;;;;;;14.70;61.15;102564.38;4906505;28;104294;-45
2022/10/19 03:22:05;;;;;;;1.80;0.60;;;;;;;14.67;61.08;102554.28;4905287;28;97238;-46
2022/10/19 03:24:30;;;;;;;1.10;0.70;;;;;;;14.66;61.20;102558.25;4906760;28;97088;-48
2022/10/19 03:26:56;;;;;;;2.30;0.70;;;;;;;14.66;61.13;102549.94;4907968;28;96943;-46
2022/10/19 03:29:21;;;;;;;5.50;0.67;;;;;;;14.67;61.04;102567.34;4903528;28;102000;-46
2022/10/19 03:31:46;;;;;;;2.10;0.70;;;;;;;14.67;61.08;102561.81;4909724;28;97357;-44
2022/10/19 03:34:12;;;;;;;1.30;0.60;;;;;;;14.67;61.13;102559.81;4902782;28;97350;-46
2022/10/19 03:36:39;;;;;;;2.40;0.87;;;;;;;14.69;61.32;102562.88;4905013;28;104791;-46
2022/10/19 03:39:07;;;;;;;7.10;0.87;;;;;;;14.68;61.14;102577.94;4907043;28;97477;-45
2022/10/19 03:41:34;;;;;;;1.90;0.60;;;;;;;14.65;61.23;102559.53;4907459;28;98596;-46
2022/10/19 03:44:00;;;;;;;2.40;0.70;;;;;;;14.64;61.37;102566.28;4902883;28;96962;-46
2022/10/19 03:46:26;;;;;;;2.00;0.70;;;;;;;14.66;61.30;102563.03;4906206;28;96734;-47
2022/10/19 03:48:52;;;;;;;5.33;0.77;;;;;;;14.68;61.34;102555.00;4900609;28;97126;-45
2022/10/19 03:51:23;;;;;;;4.93;0.93;;;;;;;14.70;61.25;102547.00;4897957;28;97310;-46
2022/10/19 03:53:54;;;;;;;3.60;0.90;;;;;;;14.72;61.43;102550.06;4899916;28;97232;-46
2022/10/19 03:56:22;;;;;;;1.60;0.70;;;;;;;14.68;61.16;102558.56;4901565;28;97090;-45
2022/10/19 03:58:50;;;;;;;1.10;0.70;;;;;;;14.67;61.32;102561.81;4905484;28;100757;-46
2022/10/19 04:01:30;;;;;;;1.40;0.60;;;;;;;14.68;61.54;102563.31;4903689;28;96799;-46
2022/10/19 04:03:57;;;;;;;3.53;0.80;;;;;;;14.70;61.52;102569.94;4904670;28;96878;-47
2022/10/19 04:06:25;;;;;;;3.13;0.80;;;;;;;14.71;61.42;102570.69;4902004;28;97475;-46
2022/10/19 04:08:51;;;;;;;5.60;1.40;;;;;;;14.74;61.53;102575.31;4902570;28;98712;-47
2022/10/19 04:11:20;;;;;;;3.13;0.77;;;;;;;14.74;61.56;102575.31;4906273;28;97455;-46
2022/10/19 04:13:50;;;;;;;1.50;0.50;;;;;;;14.73;61.47;102582.06;4904493;28;96825;-47
2022/10/19 04:16:16;;;;;;;1.93;0.80;;;;;;;14.71;61.44;102576.25;4902865;28;97021;-47
2022/10/19 04:18:42;;;;;;;1.77;0.67;;;;;;;14.71;61.52;102579.00;4906178;28;97809;-47
2022/10/19 04:21:19;;;;;;;5.30;0.70;;;;;;;14.68;61.78;102580.72;4902412;28;100367;-47
2022/10/19 04:23:45;;;;;;;5.73;0.63;;;;;;;14.66;61.55;102577.66;4906125;28;97138;-46
2022/10/19 04:26:10;;;;;;;2.50;0.80;;;;;;;14.65;61.54;102576.13;4903017;28;102830;-47
2022/10/19 04:28:35;;;;;;;2.73;0.77;;;;;;;14.63;61.60;102575.84;4904976;28;97424;-46
2022/10/19 04:31:03;;;;;;;3.00;0.90;;;;;;;14.63;61.68;102577.84;4905273;28;100985;-47
2022/10/19 04:33:28;;;;;;;2.33;0.70;;;;;;;14.64;61.61;102582.13;4907390;28;96733;-46
2022/10/19 04:36:02;;;;;;;2.83;1.00;;;;;;;14.64;61.61;102574.59;4906833;28;97378;-46
2022/10/19 04:38:30;;;;;;;1.93;0.83;;;;;;;14.62;61.45;102576.31;4900716;28;100613;-47
2022/10/19 04:41:11;;;;;;;4.20;0.80;;;;;;;14.64;61.47;102585.69;4905508;28;100632;-46
2022/10/19 04:43:36;;;;;;;1.83;0.67;;;;;;;14.64;61.56;102584.91;4903980;28;96661;-46
2022/10/19 04:46:10;;;;;;;3.77;1.03;;;;;;;14.63;61.54;102592.47;4901152;28;97236;-46
2022/10/19 04:48:37;;;;;;;1.10;0.60;;;;;;;14.62;61.46;102595.69;4905720;28;100503;-45
2022/10/19 04:51:03;;;;;;;2.83;0.90;;;;;;;14.61;61.60;102597.69;4901515;28;97388;-47
2022/10/19 04:53:28;;;;;;;2.53;0.60;;;;;;;14.63;61.73;102597.25;4905501;28;97386;-47
2022/10/19 04:55:53;;;;;;;0.60;0.50;;;;;;;14.64;61.67;102599.53;4904133;28;102258;-46
2022/10/19 04:58:19;;;;;;;1.53;0.70;;;;;;;14.64;61.61;102607.84;4904052;28;98216;-46
2022/10/19 05:00:44;;;;;;;3.23;1.00;;;;;;;14.66;61.57;102607.38;4904147;28;97298;-47
2022/10/19 05:03:10;;;;;;;0.70;0.60;;;;;;;14.63;61.72;102608.31;4905937;28;96935;-47
2022/10/19 05:05:35;;;;;;;5.10;1.17;;;;;;;14.64;61.70;102604.31;4906912;28;96972;-45
2022/10/19 05:08:01;;;;;;;1.13;0.80;;;;;;;14.63;61.57;102603.56;4906216;28;97487;-44
2022/10/19 05:10:26;;;;;;;4.77;1.07;;;;;;;14.62;61.60;102606.78;4907158;28;96924;-46
2022/10/19 05:12:52;;;;;;;9.77;0.97;;;;;;;14.60;61.79;102600.94;4909132;28;97200;-46
2022/10/19 05:15:18;;;;;;;5.33;0.90;;;;;;;14.59;61.63;102600.19;4903414;28;97373;-47
2022/10/19 05:17:43;;;;;;;4.70;1.00;;;;;;;14.59;61.66;102605.72;4905245;28;98972;-44
2022/10/19 05:20:10;;;;;;;3.30;0.87;;;;;;;14.56;61.77;102617.00;4905926;28;97146;-44
2022/10/19 05:22:36;;;;;;;1.90;0.90;;;;;;;14.54;61.71;102602.84;4907590;28;97027;-45
2022/10/19 05:25:02;;;;;;;2.37;0.83;;;;;;;14.51;61.77;102599.00;4906281;28;97481;-44
2022/10/19 05:27:27;;;;;;;3.83;1.00;;;;;;;14.51;61.96;102612.09;4908855;28;98427;-47
2022/10/19 05:29:52;;;;;;;5.40;1.10;;;;;;;14.53;61.87;102604.84;4905898;28;98350;-46
2022/10/19 05:32:18;;;;;;;2.30;0.70;;;;;;;14.56;61.89;102603.13;4908247;28;106438;-44
2022/10/19 05:34:43;;;;;;;3.27;1.00;;;;;;;14.59;61.79;102604.97;4908603;28;100511;-48
2022/10/19 05:37:08;;;;;;;2.00;0.67;;;;;;;14.56;61.77;102601.13;4906985;28;100226;-48
2022/10/19 05:39:34;;;;;;;2.17;1.27;;;;;;;14.55;61.86;102596.81;4905391;28;97176;-45
2022/10/19 05:41:59;;;;;;;3.90;1.30;;;;;;;14.56;61.91;102600.38;4906722;28;97577;-47
2022/10/19 05:44:24;;;;;;;3.73;1.40;;;;;;;14.53;61.75;102598.53;4907655;28;97391;-47
2022/10/19 05:46:50;;;;;;;2.17;1.30;;;;;;;14.47;61.84;102592.13;4905811;28;97790;-46
2022/10/19 05:49:18;;;;;;;2.57;1.33;;;;;;;14.45;62.04;102600.91;4909270;28;97268;-46
2022/10/19 05:51:44;;;;;;;3.17;1.93;;;;;;;14.43;62.05;102602.63;4904192;28;97400;-45
2022/10/19 05:54:11;;;;;;;5.97;1.77;;;;;;;14.41;62.12;102602.31;4910169;28;97348;-45
2022/10/19 05:56:37;;;;;;;5.13;1.80;;;;;;;14.41;62.17;102607.84;4903968;28;97215;-47
2022/10/19 05:59:04;;;;;;;4.43;1.60;;;;;;;14.43;62.20;102606.16;4907410;28;98480;-47
2022/10/19 06:01:31;;;;;;;4.10;1.63;;;;;;;14.44;62.12;102604.91;4908294;28;97287;-46
2022/10/19 06:03:58;;;;;;;3.20;1.40;;;;;;;14.42;62.11;102604.59;4907355;28;96983;-47
2022/10/19 06:06:24;;;;;;;3.10;1.60;;;;;;;14.42;62.06;102610.16;4905192;28;97908;-46
2022/10/19 06:08:51;;;;;;;2.60;1.47;;;;;;;14.43;62.17;102611.69;4911453;28;97378;-46
2022/10/19 06:11:20;;;;;;;2.47;1.40;;;;;;;14.47;62.24;102612.28;4904536;28;97097;-47
2022/10/19 06:13:48;;;;;;;1.70;1.10;;;;;;;14.49;62.21;102620.09;4908451;28;97442;-45
2022/10/19 06:16:14;;;;;;;4.40;1.07;;;;;;;14.52;62.23;102619.19;4908018;28;97053;-48
2022/10/19 06:18:40;;;;;;;10.07;1.43;;;;;;;14.55;62.12;102610.69;4906031;28;98123;-45
2022/10/19 06:21:12;;;;;;;4.73;1.77;;;;;;;14.55;62.06;102613.44;4906922;28;96715;-47
2022/10/19 06:23:37;;;;;;;1.23;0.90;;;;;;;14.56;62.05;102614.22;4907651;28;97330;-46
2022/10/19 06:26:06;;;;;;;5.20;1.30;;;;;;;14.57;62.02;102610.97;4909233;28;98038;-48
2022/10/19 06:28:32;;;;;;;2.63;1.07;;;;;;;14.57;62.13;102616.50;4905633;28;101618;-45
2022/10/19 06:30:58;;;;;;;2.97;0.90;;;;;;;14.59;62.00;102621.59;4906813;28;96785;-46
2022/10/19 06:33:23;;;;;;;3.33;1.37;;;;;;;14.59;62.03;102622.34;4909609;28;97156;-44
2022/10/19 06:35:48;;;;;;;1.00;0.87;;;;;;;14.60;62.03;102623.88;4906893;28;98586;-45
2022/10/19 06:38:15;;;;;;;2.53;1.20;;;;;;;14.63;61.96;102622.94;4903691;28;97301;-48
2022/10/19 06:40:40;;;;;;;8.13;1.17;;;;;;;14.66;62.07;102623.97;4905357;28;96932;-46
2022/10/19 06:43:06;;;;;;;4.20;0.83;;;;;;;14.65;62.08;102617.69;4907876;28;97131;-48
2022/10/19 06:45:31;;;;;;;1.80;0.73;;;;;;;14.67;61.97;102620.00;4906533;28;97368;-46
2022/10/19 06:47:59;;;;;;;9.50;1.13;;;;;;;14.70;62.00;102630.13;4908124;28;97132;-44
2022/10/19 06:50:24;;;;;;;0.90;0.60;;;;;;;14.73;61.88;102626.41;4907068;28;97230;-49
2022/10/19 06:52:49;;;;;;;3.10;1.37;;;;;;;14.76;61.92;102625.47;4906240;28;97339;-48
2022/10/19 06:55:16;;;;;;;1.07;0.93;;;;;;;14.78;61.84;102631.31;4904278;28;103555;-51
2022/10/19 06:57:42;;;;;;;2.17;0.83;;;;;;;14.79;61.93;102633.59;4906233;28;98412;-44
2022/10/19 07:00:08;;;;;;;2.03;0.70;;;;;;;14.80;61.78;102634.38;4905447;28;97356;-47
2022/10/19 07:02:33;;;;;;;1.93;0.50;;;;;;;14.81;61.83;102636.66;4908559;28;96781;-49
2022/10/19 07:04:59;;;;;;;3.73;1.13;;;;;;;14.82;61.80;102638.19;4903351;28;98785;-45
2022/10/19 07:07:24;;;;;;;5.97;1.00;;;;;;;14.85;61.79;102636.50;4903655;28;97153;-47
2022/10/19 07:09:49;;;;;;;3.43;0.90;;;;;;;14.88;61.75;102641.84;4904064;28;98097;-45
2022/10/19 07:12:15;;;;;;;3.10;0.60;;;;;;;14.90;61.80;102642.13;4905894;28;105163;-47
2022/10/19 07:14:40;;;;;;;1.70;0.70;;;;;;;14.93;61.66;102643.19;4905528;28;98598;-48
2022/10/19 07:17:06;;;;;;;4.03;0.63;;;;;;;14.95;61.68;102644.25;4904718;28;117864;-45
2022/10/19 07:19:32;;;;;;;4.83;1.03;;;;;;;14.98;61.73;102639.78;4903517;28;97963;-44
2022/10/19 07:21:58;;;;;;;2.43;0.80;;;;;;;15.02;61.68;102651.44;4905771;28;96878;-44
2022/10/19 07:24:23;;;;;;;2.90;0.90;;;;;;;15.05;61.55;102644.19;4906155;28;98256;-50
2022/10/19 07:26:49;;;;;;;3.90;0.80;;;;;;;15.07;61.60;102650.00;4905369;28;101528;-48
2022/10/19 07:29:14;;;;;;;1.97;0.80;;;;;;;15.08;61.62;102652.31;4906299;28;97498;-45
2022/10/19 07:31:40;;;;;;;6.10;1.10;;;;;;;15.12;61.61;102649.34;4907119;28;97376;-46
2022/10/19 07:34:06;;;;;;;4.00;1.17;;;;;;;15.16;61.50;102641.63;4906277;28;97473;-46
2022/10/19 07:36:34;;;;;;;5.80;1.47;;;;;;;15.18;61.46;102650.22;4902719;28;97178;-47
2022/10/19 07:39:05;;;;;;;3.10;1.03;;;;;;;15.20;61.43;102656.06;4908039;28;97366;-43
2022/10/19 07:41:30;;;;;;;2.00;0.80;;;;;;;15.22;61.47;102648.03;4908174;28;97013;-46
2022/10/19 07:43:56;;;;;;;6.50;1.43;;;;;;;15.25;61.38;102653.38;4908197;28;97519;-47
2022/10/19 07:46:25;;;;;;;4.93;1.47;;;;;;;15.26;61.10;102646.59;4901605;28;97143;-45
2022/10/19 07:48:50;;;;;;;1.30;1.20;;;;;;;15.26;61.10;102649.38;4904181;28;97013;-45
2022/10/19 07:51:17;;;;;;;1.63;0.63;;;;;;;15.31;61.13;102639.63;4904815;28;97012;-44
2022/10/19 07:53:43;;;;;;;6.03;0.83;;;;;;;15.30;60.48;102655.50;4903408;28;101936;-50
2022/10/19 07:56:17;;;;;;;6.87;1.30;;;;;;;15.33;60.44;102656.56;4903996;28;97526;-46
2022/10/19 07:58:43;;;;;;;4.93;1.23;;;;;;;15.34;60.47;102664.41;4905012;28;96890;-46
2022/10/19 08:01:14;;;;;;;1.43;0.80;;;;;;;15.37;60.31;102662.69;4903139;28;96959;-45
2022/10/19 08:03:40;;;;;;;3.43;1.03;;;;;;;15.37;60.09;102660.69;4905173;28;97344;-45
2022/10/19 08:06:08;;;;;;;5.57;1.10;;;;;;;15.37;59.89;102673.78;4904841;28;97283;-48
2022/10/19 08:08:34;;;;;;;1.33;0.80;;;;;;;15.37;59.72;102671.78;4904091;28;97158;-47
2022/10/19 08:11:08;;;;;;;4.03;1.10;;;;;;;15.40;59.35;102673.56;4905698;28;97153;-47
2022/10/19 08:13:34;;;;;;;2.53;0.67;;;;;;;15.41;59.83;102666.03;4905238;28;100633;-45
2022/10/19 08:15:59;;;;;;;1.10;0.50;;;;;;;15.46;59.50;102674.50;4907803;28;97941;-45
2022/10/19 08:18:25;;;;;;;0.90;0.80;;;;;;;15.43;59.35;102674.63;4902077;28;97259;-46
2022/10/19 08:20:50;;;;;;;1.20;0.60;;;;;;;15.43;59.31;102677.41;4905439;28;96988;-48
2022/10/19 08:23:16;;;;;;;1.87;0.80;;;;;;;15.46;59.28;102679.28;4903018;28;97525;-46
2022/10/19 08:25:41;;;;;;;2.23;0.60;;;;;;;15.49;59.15;102681.84;4905718;28;101122;-45
2022/10/19 08:28:06;;;;;;;4.10;1.00;;;;;;;15.51;58.92;102684.91;4904643;28;96968;-46
2022/10/19 08:30:36;;;;;;;0.90;0.70;;;;;;;15.53;58.76;102679.66;4906039;28;97137;-45
2022/10/19 08:33:04;;;;;;;2.23;0.90;;;;;;;15.55;58.75;102677.16;4902700;28;97055;-44
2022/10/19 08:35:30;;;;;;;1.40;0.60;;;;;;;15.57;58.65;102685.03;4906303;28;97535;-46
2022/10/19 08:37:56;;;;;;;5.43;0.97;;;;;;;15.56;58.34;102677.94;4903478;28;97089;-46
2022/10/19 08:40:25;;;;;;;0.83;0.60;;;;;;;15.57;58.14;102690.56;4905313;28;96938;-46
2022/10/19 08:43:01;;;;;;;3.23;0.80;;;;;;;15.54;57.55;102694.28;4909071;28;97046;-44
2022/10/19 08:45:47;;;;;;;1.83;0.93;;;;;;;15.46;55.31;102685.59;4905513;28;97283;-45
2022/10/19 08:48:32;;;;;;;1.23;0.70;;;;;;;15.37;55.79;102676.56;4907501;28;97523;-46
2022/10/19 08:50:59;;;;;;;1.90;1.43;;;;;;;15.34;57.90;102674.72;4907766;28;97039;-47
2022/10/19 08:53:49;;;;;;;1.10;0.60;;;;;;;15.36;56.95;102675.78;4909610;28;98600;-48
2022/10/19 08:56:35;;;;;;;0.60;0.60;;;;;;;15.37;57.22;102669.00;4907099;28;100179;-44
2022/10/19 08:59:21;;;;;;;1.43;0.70;;;;;;;15.47;56.68;102676.00;4906772;28;96813;-47
2022/10/19 09:02:01;;;;;;;3.37;0.97;;;;;;;15.52;56.54;102669.03;4907992;28;97025;-45
2022/10/19 09:04:35;;;;;;;3.60;1.03;;;;;;;15.57;57.31;102663.56;4906078;28;103009;-45
2022/10/19 09:07:25;;;;;;;2.30;0.60;;;;;;;15.59;55.98;102671.44;4910283;28;97169;-44
2022/10/19 09:10:02;;;;;;;1.23;0.70;;;;;;;15.69;56.35;102681.97;4911793;28;97118;-45
2022/10/19 09:12:39;;;;;;;3.83;1.00;;;;;;;15.82;56.51;102667.00;4908611;28;97303;-47
2022/10/19 09:15:10;;;;;;;0.80;0.80;;;;;;;15.87;56.86;102671.91;4907701;28;100530;-44
2022/10/19 09:17:35;;;;;;;2.27;0.70;;;;;;;15.91;56.67;102673.22;4906675;28;96957;-49
2022/10/19 09:20:13;;;;;;;1.43;0.70;;;;;;;15.93;56.15;102667.97;4910065;28;102848;-45
2022/10/19 09:22:55;;;;;;;1.97;0.60;;;;;;;16.01;56.23;102682.22;4907890;28;97006;-45
2022/10/19 09:25:23;;;;;;;1.60;0.60;;;;;;;16.07;56.61;102677.53;4908716;28;96843;-45
2022/10/19 09:27:59;;;;;;;2.83;0.70;;;;;;;16.11;56.04;102673.31;4903553;28;97272;-45
2022/10/19 09:30:26;;;;;;;0.80;0.50;;;;;;;16.11;56.09;102673.31;4907039;28;97265;-46
2022/10/19 09:32:59;;;;;;;3.33;0.83;;;;;;;16.20;55.92;102673.19;4910359;28;97597;-44
2022/10/19 09:35:36;;;;;;;1.93;0.90;;;;;;;16.28;55.78;102682.66;4907025;28;97950;-45
2022/10/19 09:38:04;;;;;;;2.20;0.80;;;;;;;16.36;56.09;102677.44;4906902;28;97484;-44
2022/10/19 09:40:30;;;;;;;3.50;0.70;;;;;;;16.32;55.28;102683.22;4908761;28;98568;-45
2022/10/19 09:42:57;;;;;;;1.57;0.80;;;;;;;16.29;55.63;102673.03;4907490;28;98877;-46
2022/10/19 09:45:39;;;;;;;0.60;0.50;;;;;;;16.31;54.96;102665.03;4907870;28;97835;-44
2022/10/19 09:48:15;;;;;;;1.30;0.40;;;;;;;16.35;54.44;102671.13;4907161;28;100042;-47
2022/10/19 09:50:43;;;;;;;2.97;0.70;;;;;;;16.26;55.19;102674.03;4906260;28;97377;-45
2022/10/19 09:53:18;;;;;;;3.50;0.83;;;;;;;16.17;54.62;102673.38;4905390;28;96899;-45
2022/10/19 09:55:50;;;;;;;1.73;0.50;;;;;;;16.11;54.89;102676.06;4908018;28;96664;-47
2022/10/19 09:58:18;;;;;;;2.30;1.23;;;;;;;16.07;55.08;102675.53;4907505;28;96679;-47
2022/10/19 10:00:55;;;;;;;1.20;0.60;;;;;;;16.11;54.56;102683.63;4907939;28;96716;-49
2022/10/19 10:03:21;;;;;;;3.23;0.83;;;;;;;16.18;55.31;102691.59;4906424;28;97548;-46
2022/10/19 10:05:48;;;;;;;1.67;0.80;;;;;;;16.22;55.21;102690.13;4907132;28;97042;-50
2022/10/19 10:08:21;;;;;;;0.70;0.50;;;;;;;16.31;55.03;102681.69;4909117;28;97188;-46
2022/10/19 10:11:20;;;;;;;1.73;0.50;;;;;;;16.40;54.44;102691.91;4907183;28;96983;-48
2022/10/19 10:13:51;;;;;;;2.40;0.73;;;;;;;16.42;54.41;102681.09;4894140;28;97556;-45
2022/10/19 10:16:20;;;;;;;1.73;0.80;;;;;;;16.43;54.77;102686.16;4907892;28;102637;-44
2022/10/19 10:18:58;;;;;;;2.60;0.80;;;;;;;16.38;53.51;102686.81;4907095;28;97521;-45
2022/10/19 10:21:45;;;;;;;0.60;0.60;;;;;;;16.34;54.25;102683.47;4900957;28;96968;-46
2022/10/19 10:24:10;;;;;;;4.20;0.90;;;;;;;16.35;54.69;102681.47;4906572;28;96929;-47
2022/10/19 10:26:41;;;;;;;3.50;1.23;;;;;;;16.40;54.74;102692.66;4906608;28;97234;-47
2022/10/19 10:29:26;;;;;;;4.40;1.30;;;;;;;16.44;53.87;102687.69;4908847;28;96996;-50
2022/10/19 10:32:14;;;;;;;0.67;0.53;;;;;;;16.49;54.60;102691.78;4905981;28;97827;-44
2022/10/19 10:34:43;;;;;;;1.13;0.87;;;;;;;16.63;54.89;102687.44;4905856;28;97100;-50
2022/10/19 10:37:45;;;;;;;3.73;0.80;;;;;;;16.77;53.85;102683.84;4903852;28;97585;-48
2022/10/19 10:40:28;;;;;;;0.97;0.97;;;;;;;16.91;53.84;102681.00;4908807;28;100067;-46
2022/10/19 10:43:00;;;;;;;2.20;0.80;;;;;;;17.01;54.46;102685.19;4904487;28;97166;-44
2022/10/19 10:45:38;;;;;;;3.27;1.10;;;;;;;17.09;53.75;102682.72;4905362;28;97162;-46
2022/10/19 10:48:22;;;;;;;1.10;0.90;;;;;;;17.15;53.45;102686.31;4904868;28;97168;-46
2022/10/19 10:50:50;;;;;;;0.80;0.80;;;;;;;17.21;54.25;102670.47;4906782;28;99997;-45
2022/10/19 10:53:31;;;;;;;5.63;1.10;;;;;;;17.29;53.13;102673.56;4905536;28;97030;-49
2022/10/19 10:55:56;;;;;;;0.93;0.80;;;;;;;17.31;53.86;102666.28;4904651;28;99692;-45
2022/10/19 10:58:33;;;;;;;8.10;1.23;;;;;;;17.36;53.26;102668.34;4905403;28;98575;-46
2022/10/19 11:01:03;;;;;;;2.30;1.27;;;;;;;17.43;53.93;102673.47;4904853;28;100267;-46
2022/10/19 11:03:29;;;;;;;2.00;1.10;;;;;;;17.54;53.75;102665.25;4907959;28;97108;-44
2022/10/19 11:05:59;;;;;;;2.30;0.87;;;;;;;17.61;52.08;102661.25;4906638;28;96846;-47
2022/10/19 11:08:46;;;;;;;0.93;0.80;;;;;;;17.49;50.88;102652.03;4907481;28;96977;-45
2022/10/19 11:11:14;;;;;;;1.20;0.80;;;;;;;17.48;52.81;102652.50;4905813;28;101853;-47
2022/10/19 11:13:59;;;;;;;1.43;1.07;;;;;;;17.48;52.06;102655.28;4907119;28;97007;-46
2022/10/19 11:16:34;;;;;;;1.33;0.80;;;;;;;17.51;52.62;102651.56;4901333;28;96711;-48
2022/10/19 11:19:23;;;;;;;1.00;1.00;;;;;;;17.52;52.13;102647.50;4907071;28;98904;-46
2022/10/19 11:21:56;;;;;;;1.80;0.97;;;;;;;17.57;53.11;102650.34;4905928;28;102543;-45
2022/10/19 11:24:33;;;;;;;1.43;0.90;;;;;;;17.62;52.32;102646.88;4904816;28;97353;-46
2022/10/19 11:27:10;;;;;;;3.63;0.80;;;;;;;17.70;52.31;102642.38;4903517;28;97181;-48
2022/10/19 11:30:07;;;;;;;1.10;1.00;;;;;;;17.72;50.54;102625.94;4905912;28;97035;-45
2022/10/19 11:32:55;;;;;;;2.70;0.90;;;;;;;17.61;51.25;102625.06;4901763;28;101645;-45
2022/10/19 11:35:33;;;;;;;3.23;0.90;;;;;;;17.68;51.25;102622.63;4905090;28;96965;-45
2022/10/19 11:38:24;;;;;;;2.47;1.10;;;;;;;17.77;50.17;102621.66;4906798;28;97053;-45